Time;durP1;ratioP1;P1;durP2;ratioP2;P2;SDS_P1;SDS_P2;PMS_P1;PMS_P2;Temp;Humidity;BMP_temperature;BMP_pressure;BME280_temperature;BME280_humidity;BME280_pressure;Samples;Min_cycle;Max_cycle;Signal;HPM_P1;HPM_P2
2021/05/29 00:01:54;;;;;;;3.00;1.58;;;11.00;99.90;;;;;;4950797;29;20028;-79
2021/05/29 00:04:19;;;;;;;2.50;1.25;;;11.10;99.90;;;;;;4950792;29;20384;-79
2021/05/29 00:06:45;;;;;;;2.00;1.02;;;11.00;99.90;;;;;;4957173;23;20047;-79
2021/05/29 00:09:10;;;;;;;2.83;0.90;;;11.00;99.90;;;;;;4950721;29;20112;-79
2021/05/29 00:11:36;;;;;;;1.98;0.90;;;10.90;99.90;;;;;;4951126;29;20070;-79
2021/05/29 00:14:03;;;;;;;2.40;1.30;;;10.90;99.90;;;;;;4951006;29;20039;-79
2021/05/29 00:16:28;;;;;;;3.47;1.17;;;10.80;99.90;;;;;;4950924;29;20028;-79
2021/05/29 00:18:54;;;;;;;1.90;1.13;;;10.80;99.90;;;;;;4950979;29;20035;-79
2021/05/29 00:21:20;;;;;;;2.60;0.93;;;10.70;99.90;;;;;;4950837;29;20052;-80
2021/05/29 00:23:45;;;;;;;2.03;0.98;;;10.70;99.90;;;;;;4949631;29;20067;-79
2021/05/29 00:26:11;;;;;;;2.72;0.90;;;10.70;99.90;;;;;;4933484;29;20035;-79
2021/05/29 00:28:36;;;;;;;2.55;1.40;;;10.60;99.90;;;;;;4951059;29;20087;-80
2021/05/29 00:31:03;;;;;;;2.45;1.45;;;10.50;99.90;;;;;;4949493;29;20048;-78
2021/05/29 00:33:29;;;;;;;3.83;1.25;;;10.50;99.90;;;;;;4949561;29;20396;-78
2021/05/29 00:35:55;;;;;;;3.15;1.38;;;10.40;99.90;;;;;;4948860;29;20038;-79
2021/05/29 00:38:21;;;;;;;2.10;1.48;;;10.40;99.90;;;;;;4965292;29;20028;-78
2021/05/29 00:40:47;;;;;;;3.20;1.52;;;10.30;99.90;;;;;;4948913;29;20542;-80
2021/05/29 00:43:12;;;;;;;2.47;1.20;;;10.30;99.90;;;;;;4949069;29;20111;-78
2021/05/29 00:45:38;;;;;;;2.03;1.23;;;10.20;99.90;;;;;;4950408;29;20039;-78
2021/05/29 00:48:04;;;;;;;3.50;1.70;;;10.20;99.90;;;;;;4950411;29;20102;-78
2021/05/29 00:50:31;;;;;;;4.63;2.35;;;10.20;99.90;;;;;;4950097;29;20055;-79
2021/05/29 00:52:58;;;;;;;3.35;1.70;;;10.10;99.90;;;;;;4950102;29;20067;-78
2021/05/29 00:55:24;;;;;;;2.95;1.77;;;10.10;99.90;;;;;;4964755;29;20031;-78
2021/05/29 00:57:51;;;;;;;3.40;1.90;;;10.10;99.90;;;;;;4949848;29;20115;-78
2021/05/29 01:00:19;;;;;;;3.22;1.60;;;10.10;99.90;;;;;;4949674;29;20039;-79
2021/05/29 01:02:45;;;;;;;2.63;1.50;;;10.00;99.90;;;;;;4949965;29;20035;-79
2021/05/29 01:05:31;;;;;;;3.70;2.35;;;10.00;99.90;;;;;;4964437;29;20032;-79
2021/05/29 01:07:57;;;;;;;2.97;1.98;;;10.00;99.90;;;;;;4909217;29;20437;-79
2021/05/29 01:10:24;;;;;;;4.10;2.00;;;9.90;99.90;;;;;;4909105;29;20040;-79
2021/05/29 01:12:51;;;;;;;4.05;1.73;;;9.90;99.90;;;;;;4909414;29;20041;-78
2021/05/29 01:15:18;;;;;;;4.00;2.25;;;9.90;99.90;;;;;;4878171;29;20041;-79
2021/05/29 01:17:44;;;;;;;3.92;1.55;;;9.80;99.90;;;;;;4910094;29;20088;-79
2021/05/29 01:20:11;;;;;;;4.20;2.38;;;9.70;99.90;;;;;;4895499;29;20099;-79
2021/05/29 01:22:45;;;;;;;4.93;2.35;;;9.60;99.90;;;;;;4911823;29;20033;-80
2021/05/29 01:25:32;;;;;;;4.20;2.35;;;9.70;99.90;;;;;;4915862;29;20554;-80
2021/05/29 01:28:07;;;;;;;3.42;2.25;;;9.70;99.90;;;;;;4912720;29;20059;-79
2021/05/29 01:30:41;;;;;;;3.63;2.30;;;9.60;99.90;;;;;;4927830;29;20083;-79
2021/05/29 01:33:10;;;;;;;2.78;2.28;;;9.60;99.90;;;;;;4896383;29;20505;-79
2021/05/29 01:35:36;;;;;;;3.53;2.85;;;9.50;99.90;;;;;;4912028;29;20040;-79
2021/05/29 01:38:02;;;;;;;3.95;2.20;;;9.50;99.90;;;;;;4911692;29;20128;-79
2021/05/29 01:40:28;;;;;;;4.45;2.42;;;9.40;99.90;;;;;;4911977;29;20043;-78
2021/05/29 01:42:56;;;;;;;4.70;2.28;;;9.40;99.90;;;;;;4908823;29;20036;-79
2021/05/29 01:45:26;;;;;;;3.47;2.13;;;9.40;99.90;;;;;;4933923;29;20043;-79
2021/05/29 01:47:52;;;;;;;4.20;2.83;;;9.30;99.90;;;;;;4946851;29;20046;-79
2021/05/29 01:50:18;;;;;;;6.18;2.78;;;9.30;99.90;;;;;;4948835;29;20071;-80
2021/05/29 01:52:44;;;;;;;4.07;2.40;;;9.30;99.90;;;;;;4948802;29;20396;-78
2021/05/29 01:55:10;;;;;;;4.47;2.17;;;9.20;99.90;;;;;;4947726;29;20035;-80
2021/05/29 01:57:36;;;;;;;5.65;3.42;;;9.20;99.90;;;;;;4947239;29;20035;-80
2021/05/29 02:00:03;;;;;;;7.25;3.53;;;9.20;99.90;;;;;;4947438;29;20129;-81
2021/05/29 02:02:38;;;;;;;5.68;2.35;;;9.20;99.90;;;;;;4948849;29;20079;-79
2021/05/29 02:05:31;;;;;;;4.80;3.15;;;9.20;99.90;;;;;;4947579;29;20039;-79
2021/05/29 02:08:02;;;;;;;5.45;3.53;;;9.20;99.90;;;;;;4926854;29;20048;-79
2021/05/29 02:10:30;;;;;;;5.65;3.45;;;9.20;99.90;;;;;;4911667;29;20047;-79
2021/05/29 02:12:58;;;;;;;3.80;2.25;;;9.20;99.90;;;;;;4911179;29;20040;-79
2021/05/29 02:15:27;;;;;;;5.75;3.22;;;9.20;99.90;;;;;;4927480;29;20114;-79
2021/05/29 02:17:56;;;;;;;5.32;3.25;;;9.10;99.90;;;;;;4927143;29;20087;-79
2021/05/29 02:20:44;;;;;;;7.88;3.90;;;9.10;99.90;;;;;;4927270;29;20035;-79
2021/05/29 02:23:19;;;;;;;6.70;3.83;;;9.20;99.90;;;;;;4927110;29;20032;-77
2021/05/29 02:25:47;;;;;;;6.95;3.90;;;9.20;99.90;;;;;;4938503;29;20187;-78
2021/05/29 02:28:13;;;;;;;4.70;3.15;;;9.10;99.90;;;;;;4945736;29;20039;-79
2021/05/29 02:30:39;;;;;;;7.80;2.95;;;9.00;99.90;;;;;;4930130;29;20079;-79
2021/05/29 02:33:05;;;;;;;6.18;2.83;;;9.10;99.90;;;;;;4946052;29;20107;-78
2021/05/29 02:35:31;;;;;;;5.10;3.47;;;9.00;99.90;;;;;;4945951;29;20048;-77
2021/05/29 02:37:57;;;;;;;5.90;3.03;;;8.90;99.90;;;;;;4929815;29;20282;-79
2021/05/29 02:40:23;;;;;;;5.68;3.22;;;9.00;99.90;;;;;;4946053;29;20296;-78
2021/05/29 02:42:49;;;;;;;4.45;3.08;;;8.90;99.90;;;;;;4943492;29;20051;-78
2021/05/29 02:45:14;;;;;;;6.18;3.72;;;8.90;99.90;;;;;;4928580;29;20052;-78
2021/05/29 02:47:40;;;;;;;5.55;3.17;;;8.80;99.90;;;;;;4912037;29;20035;-79
2021/05/29 02:50:07;;;;;;;8.15;3.70;;;8.80;99.90;;;;;;4929099;29;20040;-79
2021/05/29 02:52:32;;;;;;;5.38;2.92;;;8.80;99.90;;;;;;4927888;29;20036;-78
2021/05/29 02:54:59;;;;;;;5.85;3.30;;;8.80;99.90;;;;;;4928049;29;20056;-79
2021/05/29 02:57:24;;;;;;;6.32;3.33;;;8.80;99.90;;;;;;4928899;29;20028;-78
2021/05/29 02:59:50;;;;;;;5.50;3.75;;;8.70;99.90;;;;;;4932145;29;20495;-78
2021/05/29 03:02:16;;;;;;;6.07;3.42;;;8.70;99.90;;;;;;4931747;29;20035;-78
2021/05/29 03:04:41;;;;;;;5.18;3.20;;;8.70;99.90;;;;;;4933011;29;20055;-79
2021/05/29 03:07:07;;;;;;;5.78;3.58;;;8.60;99.90;;;;;;4931239;29;20059;-78
2021/05/29 03:09:34;;;;;;;5.65;3.67;;;8.60;99.90;;;;;;4947212;29;20255;-78
2021/05/29 03:12:00;;;;;;;6.55;3.45;;;8.60;99.90;;;;;;4932693;29;20028;-78
2021/05/29 03:14:26;;;;;;;3.92;2.85;;;8.60;99.90;;;;;;4931231;29;20042;-78
2021/05/29 03:16:52;;;;;;;5.72;2.80;;;8.50;99.90;;;;;;4931210;29;20397;-79
2021/05/29 03:19:18;;;;;;;5.18;3.47;;;8.40;99.90;;;;;;4932371;29;20034;-78
2021/05/29 03:21:44;;;;;;;5.70;3.25;;;8.40;99.90;;;;;;4915428;29;20036;-78
2021/05/29 03:24:10;;;;;;;6.07;3.50;;;8.40;99.90;;;;;;4932421;29;20036;-78
2021/05/29 03:26:36;;;;;;;6.43;3.75;;;8.30;99.90;;;;;;4950235;29;20046;-77
2021/05/29 03:29:02;;;;;;;8.25;3.85;;;8.30;99.90;;;;;;4951174;29;20047;-78
2021/05/29 03:31:28;;;;;;;9.50;4.20;;;8.30;99.90;;;;;;4951287;29;20035;-78
2021/05/29 03:33:54;;;;;;;6.72;3.33;;;8.20;99.90;;;;;;4951349;29;20050;-78
2021/05/29 03:36:20;;;;;;;7.43;3.65;;;8.20;99.90;;;;;;4951124;29;20055;-78
2021/05/29 03:38:46;;;;;;;5.18;3.35;;;8.30;99.90;;;;;;4951060;29;20050;-78
2021/05/29 03:41:11;;;;;;;5.72;3.42;;;8.30;99.90;;;;;;4950958;29;20024;-77
2021/05/29 03:43:37;;;;;;;5.82;3.58;;;8.30;99.90;;;;;;4950291;29;20031;-78
2021/05/29 03:46:04;;;;;;;5.18;3.20;;;8.20;99.90;;;;;;4950607;29;20028;-78
2021/05/29 03:48:31;;;;;;;6.35;3.58;;;8.30;99.90;;;;;;4950125;29;20055;-78
2021/05/29 03:50:56;;;;;;;6.07;3.85;;;8.30;99.90;;;;;;4949139;29;20054;-78
2021/05/29 03:53:22;;;;;;;6.68;3.95;;;8.20;99.90;;;;;;4950259;29;20038;-78
2021/05/29 03:55:47;;;;;;;6.18;3.55;;;8.20;99.90;;;;;;4950351;29;20087;-78
2021/05/29 03:58:13;;;;;;;5.85;3.50;;;8.30;99.90;;;;;;4948659;29;20024;-77
2021/05/29 04:00:39;;;;;;;5.93;3.75;;;8.30;99.90;;;;;;4948953;29;20043;-78
2021/05/29 04:03:05;;;;;;;7.13;4.22;;;8.30;99.90;;;;;;4964938;29;20042;-78
2021/05/29 04:05:30;;;;;;;7.10;4.30;;;8.30;99.90;;;;;;4964880;29;20087;-78
2021/05/29 04:07:56;;;;;;;7.38;4.18;;;8.30;99.90;;;;;;4964337;29;20051;-78
2021/05/29 04:10:25;;;;;;;6.15;3.90;;;8.30;99.90;;;;;;4947944;29;20103;-77
2021/05/29 04:12:52;;;;;;;6.60;3.72;;;8.30;99.90;;;;;;4965023;29;20514;-79
2021/05/29 04:15:18;;;;;;;7.45;3.97;;;8.30;99.90;;;;;;4948541;29;20035;-79
2021/05/29 04:17:44;;;;;;;6.60;4.28;;;8.30;99.90;;;;;;4964547;29;20112;-76
2021/05/29 04:20:13;;;;;;;8.35;4.20;;;8.40;99.90;;;;;;4949859;29;20083;-79
2021/05/29 04:22:39;;;;;;;7.05;4.80;;;8.50;99.90;;;;;;4948481;29;20087;-79
2021/05/29 04:25:07;;;;;;;9.52;5.50;;;8.50;99.90;;;;;;4949709;29;20035;-79
2021/05/29 04:27:33;;;;;;;6.57;3.95;;;8.60;99.90;;;;;;4949601;29;20027;-78
2021/05/29 04:29:59;;;;;;;8.45;5.13;;;8.70;99.90;;;;;;4948025;29;20046;-79
2021/05/29 04:32:25;;;;;;;9.00;5.28;;;8.80;99.90;;;;;;4949844;29;20062;-79
2021/05/29 04:34:51;;;;;;;7.72;5.28;;;8.90;99.90;;;;;;4964423;29;20035;-79
2021/05/29 04:37:17;;;;;;;8.30;4.50;;;9.00;99.90;;;;;;4948265;29;20027;-79
2021/05/29 04:39:44;;;;;;;11.30;6.30;;;9.20;99.90;;;;;;4949358;29;20036;-79
2021/05/29 04:42:10;;;;;;;12.13;6.43;;;9.30;99.90;;;;;;4949502;29;20028;-79
2021/05/29 04:44:36;;;;;;;9.45;5.75;;;9.40;99.90;;;;;;4949508;29;20379;-79
2021/05/29 04:47:02;;;;;;;8.07;5.22;;;9.60;99.90;;;;;;4949347;29;20024;-79
2021/05/29 04:49:29;;;;;;;9.23;5.35;;;9.70;99.90;;;;;;4963965;29;20099;-79
2021/05/29 04:51:57;;;;;;;13.38;6.47;;;9.80;99.90;;;;;;4948089;29;20087;-79
2021/05/29 04:54:23;;;;;;;9.52;6.22;;;9.90;99.90;;;;;;4949285;29;20123;-78
2021/05/29 04:56:48;;;;;;;8.23;5.75;;;10.00;99.90;;;;;;4949301;29;20035;-78
2021/05/29 04:59:14;;;;;;;12.18;7.15;;;10.20;99.90;;;;;;4949352;29;20035;-78
2021/05/29 05:01:40;;;;;;;7.65;4.95;;;10.30;99.90;;;;;;4963648;29;20028;-78
2021/05/29 05:04:06;;;;;;;13.43;8.05;;;10.40;99.90;;;;;;4947868;29;20031;-78
2021/05/29 05:06:32;;;;;;;9.73;6.45;;;10.30;99.90;;;;;;4948777;29;20059;-78
2021/05/29 05:08:57;;;;;;;11.95;8.35;;;10.40;99.90;;;;;;4963519;29;20452;-78
2021/05/29 05:11:24;;;;;;;10.48;7.20;;;10.50;99.90;;;;;;4947562;29;20047;-79
2021/05/29 05:13:50;;;;;;;12.35;7.40;;;10.60;99.90;;;;;;4947644;29;20492;-78
2021/05/29 05:16:16;;;;;;;12.80;6.63;;;10.60;99.90;;;;;;4963263;29;20072;-77
2021/05/29 05:18:43;;;;;;;12.20;7.63;;;10.70;99.90;;;;;;4947606;29;20039;-77
2021/05/29 05:21:09;;;;;;;11.45;7.82;;;10.80;99.90;;;;;;4948411;29;20036;-77
2021/05/29 05:23:36;;;;;;;10.93;6.55;;;10.70;99.90;;;;;;4962714;29;20028;-78
2021/05/29 05:26:02;;;;;;;8.18;5.72;;;10.80;99.90;;;;;;4948487;29;20087;-77
2021/05/29 05:28:29;;;;;;;15.50;9.23;;;10.80;99.90;;;;;;4947386;29;20051;-79
2021/05/29 05:30:56;;;;;;;14.73;8.02;;;10.80;99.90;;;;;;4947151;29;20028;-78
2021/05/29 05:33:22;;;;;;;11.60;8.00;;;10.80;99.90;;;;;;4948669;29;20096;-78
2021/05/29 05:35:48;;;;;;;12.05;6.45;;;10.90;99.90;;;;;;4947005;29;20031;-78
2021/05/29 05:38:14;;;;;;;12.07;7.05;;;11.00;99.90;;;;;;4948295;29;20032;-78
2021/05/29 05:40:40;;;;;;;9.45;6.28;;;11.20;99.90;;;;;;4947072;29;20038;-78
2021/05/29 05:43:05;;;;;;;10.85;6.03;;;11.40;99.90;;;;;;4947019;29;20118;-78
2021/05/29 05:45:31;;;;;;;8.18;6.13;;;11.50;99.90;;;;;;4963082;29;20035;-78
2021/05/29 05:47:57;;;;;;;11.77;7.15;;;11.70;99.90;;;;;;4947838;29;20030;-79
2021/05/29 05:50:22;;;;;;;9.77;5.25;;;11.80;99.90;;;;;;4963069;29;20107;-78
2021/05/29 05:52:48;;;;;;;8.93;6.50;;;11.90;99.90;;;;;;4963021;29;20035;-79
2021/05/29 05:55:14;;;;;;;10.45;7.18;;;12.10;99.90;;;;;;4948291;29;20035;-79
2021/05/29 05:57:40;;;;;;;8.02;5.70;;;12.10;99.90;;;;;;4947869;29;20079;-79
2021/05/29 06:00:09;;;;;;;12.35;7.53;;;12.30;99.90;;;;;;4930842;29;20036;-78
2021/05/29 06:02:34;;;;;;;9.70;6.18;;;12.30;99.90;;;;;;4962614;29;20086;-77
2021/05/29 06:05:00;;;;;;;9.50;6.43;;;12.50;99.90;;;;;;4946902;29;20036;-78
2021/05/29 06:07:26;;;;;;;13.65;7.38;;;12.70;99.90;;;;;;4946278;29;20047;-77
2021/05/29 06:09:51;;;;;;;13.30;8.77;;;12.70;99.90;;;;;;4947927;29;20099;-78
2021/05/29 06:12:17;;;;;;;10.75;6.57;;;12.50;99.90;;;;;;4946698;29;20059;-78
2021/05/29 06:20:13;;;;;;;10.07;6.22;;;13.30;99.90;;;;;;4946546;29;20094;-79
2021/05/29 06:22:42;;;;;;;9.90;7.00;;;13.60;99.90;;;;;;4947720;29;20043;-79
2021/05/29 06:25:14;;;;;;;14.30;7.28;;;13.50;99.90;;;;;;4962528;29;20490;-79
2021/05/29 06:27:40;;;;;;;8.02;6.13;;;13.50;99.90;;;;;;4946373;29;20043;-79
2021/05/29 06:30:07;;;;;;;10.40;6.78;;;13.80;99.90;;;;;;4946446;29;20078;-79
2021/05/29 06:32:33;;;;;;;9.93;6.47;;;13.80;99.90;;;;;;4946227;29;20035;-79
2021/05/29 06:34:59;;;;;;;9.38;6.95;;;13.90;99.90;;;;;;4946279;29;20039;-79
2021/05/29 06:37:25;;;;;;;8.27;5.03;;;13.80;99.90;;;;;;4946039;29;20074;-78
2021/05/29 06:39:51;;;;;;;8.27;6.57;;;13.80;99.90;;;;;;4946416;29;20035;-79
2021/05/29 06:42:16;;;;;;;9.25;6.80;;;13.90;99.90;;;;;;4946225;29;20039;-79
2021/05/29 06:44:42;;;;;;;7.72;5.90;;;14.20;99.90;;;;;;4946247;29;20038;-78
2021/05/29 06:47:08;;;;;;;10.55;6.55;;;14.40;99.90;;;;;;4947225;29;20036;-78
2021/05/29 06:49:35;;;;;;;11.40;7.78;;;14.30;99.90;;;;;;4946193;29;20063;-78
2021/05/29 06:52:23;;;;;;;7.43;6.63;;;14.30;99.90;;;;;;4947472;29;20043;-78
2021/05/29 06:55:03;;;;;;;9.38;6.10;;;14.50;99.90;;;;;;4946401;29;20036;-79
2021/05/29 07:00:14;;;;;;;9.82;6.97;;;14.40;99.90;;;;;;4935460;29;20040;-78
2021/05/29 07:02:39;;;;;;;9.30;6.90;;;14.50;99.90;;;;;;4926818;29;20032;-80
2021/05/29 07:05:09;;;;;;;9.75;6.88;;;14.70;99.90;;;;;;4927058;29;20059;-79
2021/05/29 07:07:35;;;;;;;8.25;6.45;;;14.70;99.90;;;;;;4927909;29;20087;-79
2021/05/29 07:10:00;;;;;;;7.13;5.82;;;15.00;99.90;;;;;;4928420;29;20036;-79
2021/05/29 07:12:26;;;;;;;5.82;4.57;;;15.00;99.90;;;;;;4928018;29;20083;-80
2021/05/29 07:14:52;;;;;;;8.07;5.68;;;15.20;99.90;;;;;;4937276;29;20042;-80
2021/05/29 07:17:17;;;;;;;8.27;5.38;;;15.30;99.90;;;;;;4946414;29;20535;-79
2021/05/29 07:19:43;;;;;;;8.85;4.82;;;15.40;99.90;;;;;;4948509;29;20027;-79
2021/05/29 07:22:08;;;;;;;6.75;5.07;;;15.30;99.90;;;;;;4930120;29;20040;-80
2021/05/29 07:24:35;;;;;;;7.05;5.15;;;15.50;99.90;;;;;;4961848;29;20051;-79
2021/05/29 07:27:01;;;;;;;9.80;5.40;;;15.90;99.90;;;;;;4945057;29;20079;-80
2021/05/29 07:29:27;;;;;;;9.38;5.75;;;15.90;99.90;;;;;;4961906;29;20048;-79
2021/05/29 07:31:54;;;;;;;6.85;4.35;;;15.80;99.90;;;;;;4947226;29;20016;-80
2021/05/29 07:34:20;;;;;;;6.35;5.30;;;16.00;99.90;;;;;;4945976;29;20070;-80
2021/05/29 07:36:46;;;;;;;7.03;4.82;;;15.90;99.90;;;;;;4961883;29;20035;-80
2021/05/29 07:39:11;;;;;;;6.68;5.10;;;16.20;99.90;;;;;;4945836;29;20051;-80
2021/05/29 07:41:38;;;;;;;7.90;4.70;;;15.80;99.90;;;;;;4945934;29;20091;-79
2021/05/29 07:44:05;;;;;;;6.57;4.70;;;15.70;99.90;;;;;;4947186;29;20043;-80
2021/05/29 07:46:31;;;;;;;6.20;4.72;;;16.00;99.90;;;;;;4932431;29;20116;-79
2021/05/29 07:48:57;;;;;;;5.88;4.47;;;16.40;99.90;;;;;;4965034;29;20044;-80
2021/05/29 07:51:23;;;;;;;7.25;5.03;;;16.30;99.90;;;;;;4949170;29;20028;-79
2021/05/29 07:53:49;;;;;;;6.00;4.07;;;16.40;99.90;;;;;;4949250;29;20042;-79
2021/05/29 07:56:17;;;;;;;7.80;5.60;;;16.60;99.90;;;;;;4949044;29;20059;-80
2021/05/29 07:58:47;;;;;;;6.97;4.80;;;16.20;99.90;;;;;;4950341;29;20042;-79
2021/05/29 08:01:13;;;;;;;8.10;5.90;;;16.70;99.90;;;;;;4950410;29;20061;-80
2021/05/29 08:03:39;;;;;;;8.38;6.30;;;16.70;99.90;;;;;;4950425;29;20036;-79
2021/05/29 08:06:26;;;;;;;10.13;6.57;;;16.60;99.90;;;;;;4948837;29;20039;-79
2021/05/29 08:08:50;;;;;;;12.35;6.78;;;16.70;99.90;;;;;;4949787;29;20079;-80
2021/05/29 08:11:23;;;;;;;6.47;4.80;;;16.70;99.90;;;;;;4950292;29;20043;-80
2021/05/29 08:13:51;;;;;;;6.63;4.68;;;17.20;99.90;;;;;;4950098;29;20053;-80
2021/05/29 08:16:18;;;;;;;6.07;4.82;;;17.60;99.90;;;;;;4949997;29;20055;-79
2021/05/29 08:18:44;;;;;;;8.18;6.13;;;18.00;99.90;;;;;;4948489;29;20035;-79
2021/05/29 08:21:10;;;;;;;5.97;4.80;;;17.20;99.90;;;;;;4964104;29;20028;-79
2021/05/29 08:23:36;;;;;;;6.32;4.78;;;16.80;99.90;;;;;;4964281;29;20046;-80
2021/05/29 08:26:02;;;;;;;6.57;4.95;;;17.20;99.90;;;;;;4948165;29;20055;-79
2021/05/29 08:28:28;;;;;;;7.38;5.10;;;16.90;99.90;;;;;;4947860;29;20036;-79
2021/05/29 08:30:53;;;;;;;7.68;6.10;;;16.20;99.90;;;;;;4947464;29;20043;-79
2021/05/29 08:33:19;;;;;;;6.65;5.07;;;16.00;99.90;;;;;;4962741;29;20039;-79
2021/05/29 08:35:45;;;;;;;6.82;5.05;;;16.50;99.90;;;;;;4963649;29;20104;-80
2021/05/29 08:38:10;;;;;;;6.18;4.85;;;16.70;99.90;;;;;;4947667;29;20432;-79
2021/05/29 08:40:36;;;;;;;7.40;5.03;;;16.50;99.90;;;;;;4948747;29;20032;-80
2021/05/29 08:43:03;;;;;;;4.47;3.40;;;16.40;99.90;;;;;;4963058;28;20031;-79
2021/05/29 08:45:29;;;;;;;8.85;6.93;;;16.00;99.90;;;;;;4962776;29;20040;-79
2021/05/29 08:47:58;;;;;;;7.18;5.15;;;15.90;99.90;;;;;;4931483;29;20036;-80
2021/05/29 08:50:25;;;;;;;5.45;3.75;;;16.50;99.90;;;;;;4963672;29;20106;-80
2021/05/29 08:52:51;;;;;;;6.38;4.22;;;16.50;99.90;;;;;;4964102;29;20035;-80
2021/05/29 08:55:18;;;;;;;6.85;4.47;;;16.70;99.90;;;;;;4963745;29;20077;-80
2021/05/29 08:57:46;;;;;;;5.32;4.18;;;16.70;99.90;;;;;;4928613;29;20481;-81
2021/05/29 09:00:17;;;;;;;5.68;4.05;;;17.00;99.90;;;;;;4913353;23;20071;-80
2021/05/29 09:02:59;;;;;;;7.07;5.28;;;17.00;99.90;;;;;;4964504;29;20256;-80
2021/05/29 09:05:49;;;;;;;6.03;4.18;;;16.60;99.90;;;;;;4963165;29;20037;-80
2021/05/29 09:08:27;;;;;;;7.88;4.03;;;16.70;99.90;;;;;;4893366;29;20040;-80
2021/05/29 09:10:56;;;;;;;3.58;3.05;;;16.80;99.90;;;;;;4926376;29;20052;-80
2021/05/29 09:13:25;;;;;;;5.68;3.28;;;17.30;99.90;;;;;;4908047;29;20044;-79
2021/05/29 09:16:04;;;;;;;4.57;3.17;;;17.40;99.90;;;;;;4910395;29;20032;-80
2021/05/29 09:18:44;;;;;;;7.85;5.57;;;18.10;99.90;;;;;;4909829;29;20032;-80
2021/05/29 09:21:22;;;;;;;8.75;5.40;;;17.60;99.90;;;;;;4910358;29;20159;-79
2021/05/29 09:24:12;;;;;;;6.00;4.18;;;17.10;99.90;;;;;;4910942;29;20043;-80
2021/05/29 09:26:51;;;;;;;5.43;3.73;;;17.20;99.90;;;;;;4910255;29;20568;-80
2021/05/29 09:29:22;;;;;;;;;;;17.30;99.90;;;;;;4910511;29;20139;-81
2021/05/29 09:31:53;;;;;;;5.25;3.47;;;17.10;99.90;;;;;;4910863;29;20211;-80
2021/05/29 09:34:39;;;;;;;10.05;6.35;;;16.70;99.90;;;;;;4910223;29;20067;-80
2021/05/29 09:37:07;;;;;;;8.25;6.18;;;16.30;99.90;;;;;;4901330;29;20037;-79
2021/05/29 09:39:36;;;;;;;8.60;6.25;;;16.10;99.90;;;;;;4910170;29;20057;-79
2021/05/29 09:42:03;;;;;;;9.23;7.68;;;15.90;99.90;;;;;;4926261;29;20058;-79
2021/05/29 09:44:29;;;;;;;8.48;6.80;;;15.60;99.90;;;;;;4915858;29;20048;-80
2021/05/29 09:46:57;;;;;;;10.40;7.82;;;15.80;99.90;;;;;;4964262;29;20031;-79
2021/05/29 09:49:26;;;;;;;7.18;5.45;;;16.20;99.90;;;;;;4963537;29;20484;-80
2021/05/29 09:51:51;;;;;;;6.80;5.60;;;16.70;99.90;;;;;;4964930;28;20031;-80
2021/05/29 09:54:17;;;;;;;10.27;7.03;;;16.50;99.90;;;;;;4965291;29;20050;-80
2021/05/29 09:56:45;;;;;;;8.68;6.22;;;16.20;99.90;;;;;;4965121;29;20035;-80
2021/05/29 10:02:24;;;;;;;8.88;6.05;;;15.80;99.90;;;;;;3396906;23;20059;-79
2021/05/29 10:04:57;;;;;;;7.90;5.03;;;16.10;99.90;;;;;;4959343;29;20064;-81
2021/05/29 10:07:44;;;;;;;5.88;4.82;;;16.20;99.90;;;;;;4929693;29;20028;-80
2021/05/29 10:10:10;;;;;;;7.55;5.10;;;16.10;99.90;;;;;;4946641;29;20102;-79
2021/05/29 10:12:35;;;;;;;8.18;6.57;;;16.20;99.90;;;;;;4945642;29;20038;-80
2021/05/29 10:15:01;;;;;;;7.50;4.50;;;16.30;99.90;;;;;;4945365;29;20059;-80
2021/05/29 10:17:30;;;;;;;8.07;4.93;;;16.30;99.90;;;;;;4945347;29;20108;-80
2021/05/29 10:19:57;;;;;;;7.28;4.85;;;16.00;99.90;;;;;;4929482;29;20040;-80
2021/05/29 10:22:23;;;;;;;6.18;3.90;;;16.50;99.90;;;;;;4945508;29;20138;-80
2021/05/29 10:24:49;;;;;;;7.07;5.00;;;16.90;99.90;;;;;;4964514;29;20054;-80
2021/05/29 10:27:24;;;;;;;5.38;3.50;;;16.40;99.90;;;;;;4965648;29;20098;-80
2021/05/29 10:30:01;;;;;;;6.22;5.60;;;16.70;99.90;;;;;;4964540;29;20047;-80
2021/05/29 10:32:27;;;;;;;7.63;4.97;;;16.10;99.90;;;;;;4980741;28;20041;-79
2021/05/29 10:35:09;;;;;;;6.75;4.40;;;16.60;99.90;;;;;;4964972;29;20060;-80
2021/05/29 10:37:43;;;;;;;8.07;4.30;;;16.50;99.90;;;;;;4963144;29;20035;-79
2021/05/29 10:40:28;;;;;;;4.88;3.55;;;16.80;99.90;;;;;;4965376;28;20038;-80
2021/05/29 10:43:06;;;;;;;4.38;2.33;;;17.00;99.90;;;;;;4964022;29;20087;-80
2021/05/29 10:45:31;;;;;;;8.88;5.50;;;17.10;99.90;;;;;;4980426;28;20157;-80
2021/05/29 10:48:01;;;;;;;6.72;5.43;;;16.90;99.90;;;;;;4979959;28;20535;-80
2021/05/29 10:50:59;;;;;;;7.78;4.65;;;16.60;99.90;;;;;;4976202;28;20074;-80
2021/05/29 10:53:55;;;;;;;6.60;4.55;;;16.60;99.90;;;;;;4960718;29;20455;-80
2021/05/29 10:56:21;;;;;;;9.15;5.85;;;16.40;99.90;;;;;;4939869;29;20091;-80
2021/05/29 10:58:59;;;;;;;7.20;3.63;;;16.20;99.90;;;;;;4962547;29;20036;-80
2021/05/29 11:01:44;;;;;;;4.32;3.03;;;17.20;99.90;;;;;;4964601;28;20049;-80
2021/05/29 11:04:17;;;;;;;5.72;2.88;;;18.40;99.90;;;;;;4964462;29;20031;-80
2021/05/29 11:06:52;;;;;;;4.95;3.15;;;18.10;99.90;;;;;;4940157;29;20097;-80
2021/05/29 11:09:37;;;;;;;5.43;3.35;;;17.80;99.90;;;;;;4964060;29;20047;-80
2021/05/29 11:12:10;;;;;;;4.47;2.67;;;18.20;99.90;;;;;;4955628;29;20034;-80
2021/05/29 11:14:55;;;;;;;4.15;2.42;;;18.30;99.90;;;;;;4970392;28;20042;-81
2021/05/29 11:17:23;;;;;;;3.67;2.45;;;17.90;99.90;;;;;;4963819;29;20066;-81
2021/05/29 11:20:13;;;;;;;1.85;1.25;;;18.00;99.90;;;;;;4965612;28;20522;-81
2021/05/29 11:22:41;;;;;;;4.30;3.15;;;18.20;99.90;;;;;;4969172;29;20063;-81
2021/05/29 11:25:08;;;;;;;3.92;3.30;;;17.40;99.90;;;;;;4967837;29;20032;-81
2021/05/29 11:27:37;;;;;;;4.60;3.03;;;17.70;99.90;;;;;;4967860;29;20062;-81
2021/05/29 11:30:14;;;;;;;5.85;3.40;;;18.20;99.90;;;;;;4968885;28;20046;-81
2021/05/29 11:35:35;;;;;;;5.32;3.88;;;18.10;99.90;;;;;;4969469;29;20062;-81
2021/05/29 11:38:08;;;;;;;5.00;3.00;;;17.80;99.90;;;;;;4968608;29;20027;-80
2021/05/29 11:40:43;;;;;;;6.20;3.85;;;17.50;99.90;;;;;;4968384;29;20031;-80
2021/05/29 11:43:11;;;;;;;4.93;3.42;;;16.80;99.90;;;;;;4968628;29;20027;-81
2021/05/29 11:45:37;;;;;;;4.90;3.08;;;17.20;99.90;;;;;;4968498;29;20039;-80
2021/05/29 11:48:05;;;;;;;6.78;3.38;;;18.30;99.90;;;;;;4984289;28;20031;-81
2021/05/29 11:50:32;;;;;;;3.47;2.35;;;18.00;99.90;;;;;;4968477;29;20035;-81
2021/05/29 11:52:59;;;;;;;2.92;1.92;;;18.90;99.90;;;;;;4969701;28;20091;-81
2021/05/29 11:55:24;;;;;;;3.40;1.58;;;18.90;99.90;;;;;;4984731;28;20037;-81
2021/05/29 11:58:04;;;;;;;2.97;2.22;;;18.60;99.90;;;;;;4984420;28;20059;-81
2021/05/29 12:00:30;;;;;;;;;;;18.20;99.90;;;;;;4968937;29;20070;-81
2021/05/29 12:02:56;;;;;;;5.40;3.50;;;18.20;99.90;;;;;;4967888;29;19918;-81
2021/05/29 12:08:57;;;;;;;5.20;2.15;;;18.70;99.90;;;;;;4948745;29;20376;-80
2021/05/29 12:11:24;;;;;;;;;;;19.20;99.90;;;;;;4949611;29;20027;-81
2021/05/29 12:14:05;;;;;;;2.55;0.93;;;19.40;99.90;;;;;;4933307;29;19917;-82
2021/05/29 12:16:37;;;;;;;3.50;1.75;;;20.00;99.90;;;;;;4949158;29;20036;-81
2021/05/29 12:19:04;;;;;;;2.25;1.02;;;18.80;99.90;;;;;;4933062;29;20038;-81
2021/05/29 12:21:48;;;;;;;2.40;1.23;;;18.30;99.90;;;;;;4933422;29;20118;-81
2021/05/29 12:24:15;;;;;;;3.95;1.77;;;18.90;99.90;;;;;;4950407;29;20046;-81
2021/05/29 12:26:42;;;;;;;4.97;2.22;;;18.50;99.90;;;;;;4950070;29;20039;-81
2021/05/29 12:29:08;;;;;;;6.75;3.33;;;18.30;99.90;;;;;;4932920;29;20091;-81
2021/05/29 12:31:51;;;;;;;3.72;2.00;;;18.00;99.90;;;;;;4949622;29;20480;-81
2021/05/29 12:34:17;;;;;;;4.22;1.90;;;18.20;99.90;;;;;;4933012;29;20036;-81
2021/05/29 12:37:09;;;;;;;2.20;1.13;;;18.40;99.90;;;;;;4932686;29;20055;-81
2021/05/29 12:40:01;;;;;;;2.50;1.00;;;19.30;99.90;;;;;;4932690;29;20031;-80
2021/05/29 12:42:34;;;;;;;1.85;0.90;;;19.40;99.90;;;;;;4932567;29;20040;-82
2021/05/29 12:45:23;;;;;;;3.30;2.15;;;19.20;99.90;;;;;;4913565;29;20043;-82
2021/05/29 12:48:00;;;;;;;3.15;1.55;;;18.60;99.90;;;;;;4897984;29;20067;-80
2021/05/29 12:50:30;;;;;;;4.90;3.13;;;19.00;99.90;;;;;;4898037;29;20048;-81
2021/05/29 12:53:16;;;;;;;4.35;3.30;;;18.80;99.90;;;;;;4913310;29;20040;-82
2021/05/29 12:55:43;;;;;;;4.50;3.35;;;18.10;99.90;;;;;;4913906;29;20055;-81
2021/05/29 12:58:24;;;;;;;3.03;1.63;;;17.70;99.90;;;;;;4913258;29;20036;-81
2021/05/29 13:09:11;;;;;;;4.10;1.42;;;19.30;99.90;;;;;;4912934;29;20091;-81
2021/05/29 13:11:37;;;;;;;2.45;1.45;;;19.20;99.90;;;;;;4912902;29;20060;-81
2021/05/29 13:14:13;;;;;;;2.50;1.70;;;19.60;99.90;;;;;;4913333;29;20028;-81
2021/05/29 13:16:49;;;;;;;3.80;2.10;;;19.10;99.90;;;;;;4915152;29;20032;-81
2021/05/29 13:19:15;;;;;;;3.63;2.47;;;19.20;99.90;;;;;;4897334;29;20039;-81
2021/05/29 13:22:02;;;;;;;4.00;2.40;;;18.70;99.90;;;;;;4897319;29;20032;-81
2021/05/29 13:24:48;;;;;;;3.15;1.70;;;18.70;99.90;;;;;;4929483;29;20040;-81
2021/05/29 13:27:20;;;;;;;3.85;1.65;;;19.00;99.90;;;;;;4948538;29;20099;-81